createdAt,value
2018-04-07T00:02:16.703Z,65.00
2018-04-07T00:04:42.733Z,66.10
2018-04-07T00:07:08.688Z,67.90
2018-04-07T00:09:34.701Z,68.50
2018-04-07T00:12:00.661Z,68.70
2018-04-07T00:14:26.687Z,70.80
2018-04-07T00:16:52.665Z,70.20
2018-04-07T00:19:18.662Z,71.10
2018-04-07T00:21:44.677Z,72.60
2018-04-07T00:24:11.436Z,76.70
2018-04-07T00:26:37.403Z,76.60
2018-04-07T00:29:03.391Z,76.90
2018-04-07T00:31:30.506Z,75.00
2018-04-07T00:33:56.522Z,75.70
2018-04-07T00:36:22.530Z,76.00
2018-04-07T00:38:49.242Z,76.40
2018-04-07T00:41:15.222Z,76.40
2018-04-07T00:43:42.038Z,79.60
2018-04-07T00:46:08.029Z,79.60
2018-04-07T00:48:34.004Z,79.90
2018-04-07T00:51:00.014Z,80.30
2018-04-07T00:53:25.989Z,81.90
2018-04-07T00:55:52.070Z,83.10
2018-04-07T00:58:18.041Z,83.50
2018-04-07T01:00:44.054Z,83.90
2018-04-07T01:03:10.033Z,85.40
2018-04-07T01:05:36.090Z,86.60
2018-04-07T01:08:02.852Z,85.10
2018-04-07T01:10:28.854Z,85.00
2018-04-07T01:12:54.879Z,86.10
2018-04-07T01:15:20.917Z,86.40
2018-04-07T01:17:46.941Z,83.50
2018-04-07T01:20:12.918Z,82.00
2018-04-07T01:22:38.913Z,84.20
2018-04-07T01:25:04.927Z,80.90
2018-04-07T01:27:30.911Z,82.10
2018-04-07T01:29:56.873Z,82.40
2018-04-07T01:32:23.629Z,79.80
2018-04-07T01:34:50.381Z,79.20
2018-04-07T01:37:17.085Z,77.80
2018-04-07T01:39:43.053Z,77.80
2018-04-07T01:42:09.037Z,77.20
2018-04-07T01:44:35.016Z,75.70
2018-04-07T01:47:01.025Z,75.00
2018-04-07T01:49:26.994Z,73.40
2018-04-07T01:51:53.091Z,74.70
2018-04-07T01:54:19.105Z,72.80
2018-04-07T01:56:45.053Z,72.00
2018-04-07T01:59:11.049Z,72.60
2018-04-07T02:01:37.816Z,70.70
2018-04-07T02:04:04.537Z,71.10
2018-04-07T02:06:30.533Z,71.10
2018-04-07T02:08:56.494Z,70.80
2018-04-07T02:11:22.517Z,70.60
2018-04-07T02:13:48.485Z,70.20
2018-04-07T02:16:14.462Z,70.90
2018-04-07T02:18:40.498Z,71.00
2018-04-07T02:21:06.526Z,71.20
2018-04-07T02:23:32.524Z,70.80
2018-04-07T02:25:58.518Z,70.20
2018-04-07T02:28:24.528Z,69.90
2018-04-07T02:30:51.225Z,68.90
2018-04-07T02:33:17.242Z,68.80
2018-04-07T02:35:43.315Z,69.50
2018-04-07T02:38:09.279Z,68.10
2018-04-07T02:40:35.230Z,68.50
2018-04-07T02:43:01.234Z,69.30
2018-04-07T02:45:27.244Z,67.40
2018-04-07T02:47:53.233Z,66.80
2018-04-07T02:50:19.934Z,66.10
2018-04-07T02:52:45.949Z,66.00
2018-04-07T02:55:11.935Z,66.60
2018-04-07T02:57:37.944Z,67.60
2018-04-07T03:00:03.890Z,66.20
2018-04-07T03:02:29.853Z,64.90
2018-04-07T03:04:55.846Z,65.80
2018-04-07T03:07:21.869Z,64.10
2018-04-07T03:09:47.865Z,63.90
2018-04-07T03:12:13.915Z,63.40
2018-04-07T03:14:40.632Z,62.80
2018-04-07T03:17:06.589Z,62.70
2018-04-07T03:19:32.581Z,61.90
2018-04-07T03:21:58.645Z,61.70
2018-04-07T03:24:24.602Z,61.10
2018-04-07T03:26:50.621Z,60.70
2018-04-07T03:29:16.587Z,60.20
2018-04-07T03:31:43.343Z,59.40
2018-04-07T03:34:10.044Z,59.60
2018-04-07T03:36:36.046Z,59.50
2018-04-07T03:39:04.911Z,58.80
2018-04-07T03:41:30.886Z,58.80
2018-04-07T03:43:56.893Z,58.20
2018-04-07T03:46:22.906Z,58.20
2018-04-07T03:48:48.871Z,58.30
2018-04-07T03:51:15.621Z,57.70
2018-04-07T03:53:42.358Z,57.70
2018-04-07T03:56:09.078Z,57.50
2018-04-07T03:58:35.093Z,57.50
2018-04-07T04:01:01.088Z,57.30
2018-04-07T04:03:27.037Z,57.50
2018-04-07T04:05:53.820Z,57.20
2018-04-07T04:08:19.812Z,57.20
2018-04-07T04:10:45.773Z,57.10
2018-04-07T04:13:12.521Z,56.30
2018-04-07T04:15:39.234Z,57.00
2018-04-07T04:18:05.207Z,56.90
2018-04-07T04:20:31.964Z,56.70
2018-04-07T04:22:58.669Z,56.40
2018-04-07T04:25:24.711Z,56.20
2018-04-07T04:27:50.754Z,56.30
2018-04-07T04:30:16.758Z,56.70
2018-04-07T04:32:42.706Z,56.60
2018-04-07T04:35:08.721Z,56.30
2018-04-07T04:37:34.709Z,56.30
2018-04-07T04:40:00.701Z,56.70
2018-04-07T04:42:26.685Z,56.30
2018-04-07T04:44:52.701Z,56.50
2018-04-07T04:47:18.701Z,56.00
2018-04-07T04:49:44.661Z,56.20
2018-04-07T04:52:10.676Z,56.40
2018-04-07T04:54:36.630Z,56.60
2018-04-07T04:57:02.599Z,57.00
2018-04-07T04:59:28.633Z,56.30
2018-04-07T05:01:54.606Z,56.60
2018-04-07T05:04:20.637Z,57.40
2018-04-07T05:06:46.613Z,57.50
2018-04-07T05:09:12.569Z,57.80
2018-04-07T05:11:39.321Z,57.00
2018-04-07T05:14:05.293Z,57.10
2018-04-07T05:16:32.031Z,57.20
2018-04-07T05:18:57.991Z,57.20
2018-04-07T05:21:23.983Z,57.90
2018-04-07T05:23:49.974Z,57.50
2018-04-07T05:26:15.922Z,57.70
2018-04-07T05:28:42.517Z,57.90
2018-04-07T05:31:08.514Z,57.30
2018-04-07T05:33:34.456Z,57.00
2018-04-07T05:36:00.482Z,57.30
2018-04-07T05:38:26.450Z,57.10
2018-04-07T05:40:52.417Z,57.50
2018-04-07T05:43:19.153Z,56.60
2018-04-07T05:45:45.105Z,56.60
2018-04-07T05:48:11.828Z,56.60
2018-04-07T05:50:37.888Z,56.60
2018-04-07T05:53:04.578Z,56.30
2018-04-07T05:55:30.566Z,56.30
2018-04-07T05:57:56.535Z,57.00
2018-04-07T06:00:22.545Z,56.70
2018-04-07T06:02:49.281Z,55.10
2018-04-07T06:05:15.270Z,55.10
2018-04-07T06:07:41.270Z,55.50
2018-04-07T06:10:07.997Z,55.50
2018-04-07T06:12:33.989Z,54.80
2018-04-07T06:14:59.963Z,53.90
2018-04-07T06:17:25.973Z,54.20
2018-04-07T06:19:51.958Z,52.10
2018-04-07T06:22:17.921Z,52.50
2018-04-07T06:24:43.936Z,52.50
2018-04-07T06:27:09.930Z,51.70
2018-04-07T06:29:35.893Z,51.50
2018-04-07T06:32:01.926Z,51.50
2018-04-07T06:34:27.890Z,51.70
2018-04-07T06:36:54.666Z,51.10
2018-04-07T06:39:21.174Z,51.10
2018-04-07T06:41:47.125Z,50.20
2018-04-07T06:44:13.862Z,50.50
2018-04-07T06:46:39.837Z,50.50
2018-04-07T06:49:06.697Z,51.30
2018-04-07T06:51:32.653Z,50.90
2018-04-07T06:53:58.678Z,49.80
2018-04-07T06:56:24.689Z,49.70
2018-04-07T06:58:51.458Z,50.40
2018-04-07T07:01:17.453Z,50.40
2018-04-07T07:03:43.496Z,49.50
2018-04-07T07:06:09.474Z,48.90
2018-04-07T07:08:35.482Z,49.20
2018-04-07T07:11:02.190Z,49.30
2018-04-07T07:13:28.171Z,49.30
2018-04-07T07:15:54.900Z,48.70
2018-04-07T07:18:20.936Z,48.70
2018-04-07T07:20:46.898Z,48.40
2018-04-07T07:23:13.684Z,48.70
2018-04-07T07:25:39.653Z,48.70
2018-04-07T07:28:05.645Z,47.70
2018-04-07T07:30:31.637Z,47.90
2018-04-07T07:32:57.683Z,47.70
2018-04-07T07:35:23.649Z,48.50
2018-04-07T07:37:49.654Z,47.10
2018-04-07T07:40:15.704Z,46.60
2018-04-07T07:42:42.494Z,46.80
2018-04-07T07:45:08.474Z,46.70
2018-04-07T07:47:34.436Z,45.30
2018-04-07T07:50:01.184Z,45.40
2018-04-07T07:52:27.929Z,45.20
2018-04-07T07:54:53.881Z,45.20
2018-04-07T07:57:21.348Z,44.80
2018-04-07T07:59:48.055Z,44.90
2018-04-07T08:02:14.090Z,44.80
2018-04-07T08:04:40.070Z,45.30
2018-04-07T08:07:06.809Z,42.60
2018-04-07T08:09:32.797Z,42.70
2018-04-07T08:11:58.773Z,43.40
2018-04-07T08:14:24.762Z,42.90
2018-04-07T08:16:50.745Z,43.50
2018-04-07T08:19:16.741Z,44.40
2018-04-07T08:21:42.832Z,43.90
2018-04-07T08:24:09.534Z,42.50
2018-04-07T08:26:35.498Z,42.50
2018-04-07T08:29:01.553Z,42.60
2018-04-07T08:31:27.517Z,42.90
2018-04-07T08:33:54.234Z,41.70
2018-04-07T08:36:20.230Z,41.70
2018-04-07T08:38:46.205Z,42.90
2018-04-07T08:41:12.289Z,42.40
2018-04-07T08:43:38.288Z,42.70
2018-04-07T08:46:04.238Z,42.60
2018-04-07T08:48:31.050Z,42.50
2018-04-07T08:50:57.050Z,42.40
2018-04-07T08:53:23.094Z,42.20
2018-04-07T08:55:49.102Z,41.70
2018-04-07T08:58:15.785Z,41.10
2018-04-07T09:00:41.797Z,41.00
2018-04-07T09:03:08.930Z,41.00
2018-04-07T09:05:34.917Z,40.90
2018-04-07T09:08:00.943Z,41.00
2018-04-07T09:10:26.878Z,40.70
2018-04-07T09:12:52.901Z,40.10
2018-04-07T09:15:19.650Z,40.30
2018-04-07T09:17:46.397Z,40.40
2018-04-07T09:20:12.389Z,40.30
2018-04-07T09:22:38.390Z,39.70
2018-04-07T09:25:05.092Z,39.80
2018-04-07T09:27:31.094Z,39.80
2018-04-07T09:29:57.065Z,39.10
2018-04-07T09:32:23.033Z,38.90
2018-04-07T09:34:49.812Z,39.40
2018-04-07T09:37:22.686Z,39.40
2018-04-07T09:39:49.390Z,38.80
2018-04-07T09:42:15.494Z,38.70
2018-04-07T09:44:42.201Z,37.70
2018-04-07T09:47:08.165Z,37.70
2018-04-07T09:49:34.167Z,37.40
2018-04-07T09:52:00.129Z,38.50
2018-04-07T09:54:26.186Z,37.50
2018-04-07T09:56:52.912Z,37.00
2018-04-07T09:59:18.865Z,37.00
2018-04-07T10:01:45.595Z,36.10
2018-04-07T10:04:11.557Z,36.10
2018-04-07T10:06:38.294Z,35.50
2018-04-07T10:09:05.209Z,36.10
2018-04-07T10:11:31.198Z,36.10
2018-04-07T10:13:57.181Z,35.20
2018-04-07T10:16:23.181Z,35.10
2018-04-07T10:18:49.923Z,35.90
2018-04-07T10:21:15.916Z,35.90
2018-04-07T10:23:41.873Z,35.80
2018-04-07T10:26:07.876Z,34.70
2018-04-07T10:28:33.902Z,34.50
2018-04-07T10:30:59.857Z,34.20
2018-04-07T10:33:25.955Z,34.00
2018-04-07T10:35:51.976Z,34.20
2018-04-07T10:38:17.968Z,34.30
2018-04-07T10:40:43.954Z,33.00
2018-04-07T10:43:10.683Z,32.10
2018-04-07T10:45:36.682Z,32.10
2018-04-07T10:48:02.681Z,32.90
2018-04-07T10:50:28.624Z,33.70
2018-04-07T10:52:54.782Z,32.30
2018-04-07T10:55:20.754Z,33.90
2018-04-07T10:57:46.802Z,34.30
2018-04-07T11:00:19.830Z,33.30
2018-04-07T11:02:45.802Z,34.20
2018-04-07T11:05:11.801Z,34.00
2018-04-07T11:07:37.788Z,33.80
2018-04-07T11:10:03.800Z,34.70
2018-04-07T11:12:29.763Z,34.00
2018-04-07T11:14:55.771Z,34.00
2018-04-07T11:17:21.802Z,34.60
2018-04-07T11:19:47.785Z,33.80
2018-04-07T11:22:13.751Z,34.00
2018-04-07T11:24:39.722Z,33.70
2018-04-07T11:27:05.718Z,33.90
2018-04-07T11:29:31.738Z,33.80
2018-04-07T11:31:57.750Z,34.40
2018-04-07T11:34:23.730Z,34.00
2018-04-07T11:36:49.691Z,34.60
2018-04-07T11:39:15.690Z,33.70
2018-04-07T11:41:41.637Z,35.00
2018-04-07T11:44:07.635Z,33.10
2018-04-07T11:46:33.603Z,33.50
2018-04-07T11:48:59.566Z,33.40
2018-04-07T11:51:26.319Z,32.50
2018-04-07T11:53:53.045Z,33.70
2018-04-07T11:56:19.058Z,33.60
2018-04-07T11:58:45.026Z,34.00
2018-04-07T12:01:11.832Z,34.00
2018-04-07T12:03:37.782Z,33.90
2018-04-07T12:06:03.729Z,33.50
2018-04-07T12:08:29.724Z,34.70
2018-04-07T12:10:55.735Z,33.20
2018-04-07T12:13:22.447Z,33.90
2018-04-07T12:15:48.483Z,33.90
2018-04-07T12:18:14.439Z,34.20
2018-04-07T12:20:40.442Z,34.10
2018-04-07T12:23:06.444Z,33.60
2018-04-07T12:25:33.145Z,33.30
2018-04-07T12:27:59.128Z,33.10
2018-04-07T12:30:25.892Z,32.20
2018-04-07T12:32:52.680Z,31.00
2018-04-07T12:35:18.714Z,30.90
2018-04-07T12:37:44.678Z,31.00
2018-04-07T12:40:10.670Z,28.60
2018-04-07T12:42:36.697Z,28.00
2018-04-07T12:45:02.655Z,27.10
2018-04-07T12:47:28.657Z,26.00
2018-04-07T12:49:55.437Z,25.20
2018-04-07T12:52:21.488Z,25.20
2018-04-07T12:54:47.445Z,24.40
2018-04-07T12:57:13.454Z,23.60
2018-04-07T12:59:39.434Z,24.10
2018-04-07T13:02:05.408Z,23.90
2018-04-07T13:04:31.422Z,23.00
2018-04-07T13:06:58.154Z,22.50
2018-04-07T13:09:24.183Z,22.50
2018-04-07T13:11:50.206Z,22.50
2018-04-07T13:14:16.200Z,22.50
2018-04-07T13:16:42.960Z,22.10
2018-04-07T13:19:09.010Z,22.00
2018-04-07T13:21:35.081Z,21.90
2018-04-07T13:24:01.101Z,22.00
2018-04-07T13:26:27.081Z,22.00
2018-04-07T13:28:53.062Z,21.20
2018-04-07T13:31:19.084Z,20.90
2018-04-07T13:33:45.050Z,20.80
2018-04-07T13:36:11.058Z,20.50
2018-04-07T13:38:37.049Z,20.00
2018-04-07T13:41:03.022Z,20.90
2018-04-07T13:43:29.761Z,20.60
2018-04-07T13:45:56.465Z,20.90
2018-04-07T13:48:22.453Z,20.80
2018-04-07T13:50:49.221Z,20.80
2018-04-07T13:53:15.189Z,20.70
2018-04-07T13:55:41.201Z,20.60
2018-04-07T13:58:07.192Z,21.20
2018-04-07T14:00:33.211Z,20.70
2018-04-07T14:02:59.909Z,21.00
2018-04-07T14:05:26.709Z,21.10
2018-04-07T14:07:52.729Z,21.00
2018-04-07T14:10:18.726Z,20.90
2018-04-07T14:12:44.718Z,21.20
2018-04-07T14:15:10.680Z,20.70
2018-04-07T14:17:36.794Z,20.80
2018-04-07T14:20:02.746Z,20.80
2018-04-07T14:22:28.751Z,21.20
2018-04-07T14:24:54.771Z,21.30
2018-04-07T14:27:20.773Z,22.00
2018-04-07T14:29:46.734Z,22.10
2018-04-07T14:32:13.470Z,22.50
2018-04-07T14:34:40.302Z,22.80
2018-04-07T14:37:06.392Z,22.30
2018-04-07T14:39:32.381Z,22.30
2018-04-07T14:41:58.477Z,22.60
2018-04-07T14:44:24.479Z,23.00
2018-04-07T14:46:51.194Z,22.70
2018-04-07T14:49:17.183Z,22.60
2018-04-07T14:51:43.180Z,23.20
2018-04-07T14:54:09.214Z,24.10
2018-04-07T14:56:35.194Z,25.40
2018-04-07T14:59:01.959Z,26.20
2018-04-07T15:01:27.921Z,26.20
2018-04-07T15:03:53.926Z,26.40
2018-04-07T15:06:19.929Z,26.80
2018-04-07T15:08:45.937Z,27.10
2018-04-07T15:11:11.897Z,26.90
2018-04-07T15:13:37.900Z,27.40
2018-04-07T15:16:03.914Z,28.00
2018-04-07T15:18:29.916Z,28.40
2018-04-07T15:20:55.946Z,28.60
2018-04-07T15:23:21.921Z,28.90
2018-04-07T15:25:47.924Z,29.00
2018-04-07T15:28:13.965Z,29.30
2018-04-07T15:30:39.949Z,29.70
2018-04-07T15:33:05.954Z,30.00
2018-04-07T15:35:32.716Z,30.10
2018-04-07T15:37:58.723Z,30.10
2018-04-07T15:40:24.720Z,30.00
2018-04-07T15:42:50.726Z,29.80
2018-04-07T15:45:17.443Z,30.70
2018-04-07T15:47:43.441Z,30.70
2018-04-07T15:50:09.485Z,30.80
2018-04-07T15:52:35.443Z,30.50
2018-04-07T15:55:01.436Z,30.80
2018-04-07T15:57:27.429Z,30.60
2018-04-07T15:59:53.442Z,30.80
2018-04-07T16:02:19.445Z,31.20
2018-04-07T16:04:45.428Z,31.00
2018-04-07T16:07:11.433Z,31.10
2018-04-07T16:09:37.477Z,31.80
2018-04-07T16:12:03.450Z,32.10
2018-04-07T16:14:29.462Z,31.90
2018-04-07T16:16:55.513Z,32.50
2018-04-07T16:19:21.526Z,32.40
2018-04-07T16:21:47.581Z,32.50
2018-04-07T16:24:13.598Z,32.80
2018-04-07T16:26:39.589Z,33.10
2018-04-07T16:29:05.594Z,33.40
2018-04-07T16:31:31.587Z,33.40
2018-04-07T16:33:57.584Z,33.50
2018-04-07T16:36:25.165Z,33.80
2018-04-07T16:38:51.134Z,33.80
2018-04-07T16:41:17.094Z,34.80
2018-04-07T16:43:43.098Z,34.30
2018-04-07T16:46:09.095Z,34.20
2018-04-07T16:48:35.058Z,34.50
2018-04-07T16:51:01.809Z,35.30
2018-04-07T16:53:28.557Z,35.40
2018-04-07T16:55:54.559Z,35.40
2018-04-07T16:58:20.573Z,35.80
2018-04-07T17:00:46.529Z,35.70
2018-04-07T17:03:12.557Z,35.50
2018-04-07T17:05:38.558Z,36.00
2018-04-07T17:08:05.267Z,36.30
2018-04-07T17:10:31.268Z,36.30
2018-04-07T17:13:04.136Z,36.00
2018-04-07T17:15:30.885Z,36.90
2018-04-07T17:17:57.605Z,37.30
2018-04-07T17:20:23.676Z,37.30
2018-04-07T17:22:50.391Z,37.60
2018-04-07T17:25:16.353Z,37.50
2018-04-07T17:27:42.348Z,38.00
2018-04-07T17:30:08.302Z,38.60
2018-04-07T17:32:34.305Z,39.00
2018-04-07T17:35:00.269Z,39.20
2018-04-07T17:37:26.296Z,39.50
2018-04-07T17:39:52.313Z,39.90
2018-04-07T17:42:18.281Z,40.10
2018-04-07T17:44:44.265Z,40.60
2018-04-07T17:47:10.978Z,41.50
2018-04-07T17:49:43.732Z,41.50
2018-04-07T17:52:02.999Z,41.70
2018-04-07T17:54:29.006Z,42.00
2018-04-07T17:56:55.031Z,42.50
2018-04-07T17:59:21.029Z,43.00
2018-04-07T18:01:47.034Z,43.40
2018-04-07T18:04:13.738Z,44.10
2018-04-07T18:06:39.771Z,44.10
2018-04-07T18:09:05.721Z,44.10
2018-04-07T18:11:31.726Z,44.40
2018-04-07T18:13:57.717Z,44.60
2018-04-07T18:16:23.761Z,44.80
2018-04-07T18:18:49.749Z,44.90
2018-04-07T18:21:15.718Z,45.30
2018-04-07T18:23:41.718Z,45.50
2018-04-07T18:26:07.714Z,45.60
2018-04-07T18:28:34.468Z,45.80
2018-04-07T18:31:01.170Z,46.10
2018-04-07T18:33:27.391Z,46.00
2018-04-07T18:35:54.109Z,46.60
2018-04-07T18:38:20.878Z,46.60
2018-04-07T18:40:47.613Z,46.90
2018-04-07T18:43:13.616Z,46.90
2018-04-07T18:45:39.622Z,47.00
2018-04-07T18:48:05.606Z,47.20
2018-04-07T18:50:32.343Z,47.50
2018-04-07T18:52:58.344Z,47.60
2018-04-07T18:55:24.330Z,48.00
2018-04-07T18:57:50.325Z,48.00
2018-04-07T19:00:16.290Z,48.40
2018-04-07T19:02:42.329Z,48.60
2018-04-07T19:05:08.330Z,48.80
2018-04-07T19:07:34.318Z,49.60
2018-04-07T19:10:01.055Z,49.50
2018-04-07T19:12:27.078Z,49.50
2018-04-07T19:14:53.101Z,49.90
2018-04-07T19:17:19.108Z,50.30
2018-04-07T19:19:45.807Z,50.80
2018-04-07T19:22:11.804Z,50.70
2018-04-07T19:24:37.792Z,50.90
2018-04-07T19:27:03.797Z,51.40
2018-04-07T19:29:29.753Z,51.70
2018-04-07T19:31:55.854Z,51.80
2018-04-07T19:34:21.867Z,52.00
2018-04-07T19:36:48.604Z,52.60
2018-04-07T19:39:14.565Z,52.60
2018-04-07T19:41:41.314Z,52.90
2018-04-07T19:44:08.038Z,53.20
2018-04-07T19:46:33.994Z,53.20
2018-04-07T19:48:59.993Z,53.40
2018-04-07T19:51:25.961Z,53.50
2018-04-07T19:53:51.921Z,53.40
2018-04-07T19:56:17.922Z,53.60
2018-04-07T19:58:43.898Z,53.80
2018-04-07T20:01:10.741Z,54.40
2018-04-07T20:03:37.433Z,54.70
2018-04-07T20:06:03.391Z,54.70
2018-04-07T20:08:29.387Z,55.00
2018-04-07T20:10:55.361Z,55.40
2018-04-07T20:13:21.354Z,55.70
2018-04-07T20:15:47.307Z,56.00
2018-04-07T20:18:14.246Z,56.40
2018-04-07T20:20:40.993Z,57.30
2018-04-07T20:23:07.706Z,57.40
2018-04-07T20:25:33.709Z,57.40
2018-04-07T20:27:59.653Z,58.00
2018-04-07T20:30:25.630Z,58.40
2018-04-07T20:32:51.628Z,58.60
2018-04-07T20:35:17.594Z,58.90
2018-04-07T20:37:43.601Z,59.70
2018-04-07T20:40:09.601Z,60.40
2018-04-07T20:42:36.985Z,62.00
2018-04-07T20:45:02.966Z,62.00
2018-04-07T20:47:28.925Z,62.50
2018-04-07T20:49:54.927Z,63.30
2018-04-07T20:52:20.876Z,64.10
2018-04-07T20:54:46.890Z,64.60
2018-04-07T20:57:12.858Z,64.80
2018-04-07T20:59:38.842Z,65.70
2018-04-07T21:02:04.821Z,66.70
2018-04-07T21:04:30.795Z,67.60
2018-04-07T21:06:57.561Z,69.50
2018-04-07T21:09:23.527Z,69.50
2018-04-07T21:11:49.534Z,70.40
2018-04-07T21:14:15.494Z,71.70
2018-04-07T21:16:41.486Z,72.90
2018-04-07T21:19:08.185Z,74.20
2018-04-07T21:21:34.993Z,74.00
2018-04-07T21:24:01.679Z,76.40
2018-04-07T21:26:27.668Z,76.30
2018-04-07T21:28:54.383Z,78.20
2018-04-07T21:31:20.342Z,78.10
2018-04-07T21:33:46.340Z,78.20
2018-04-07T21:36:13.074Z,79.10
2018-04-07T21:38:39.138Z,80.50
2018-04-07T21:41:05.130Z,80.90
2018-04-07T21:43:31.089Z,82.50
2018-04-07T21:45:57.111Z,83.20
2018-04-07T21:48:23.845Z,83.90
2018-04-07T21:50:49.841Z,83.90
2018-04-07T21:53:15.837Z,84.50
2018-04-07T21:55:42.554Z,86.20
2018-04-07T21:58:08.568Z,86.20
2018-04-07T22:00:34.523Z,86.60
2018-04-07T22:03:00.512Z,87.50
2018-04-07T22:05:26.521Z,87.80
2018-04-07T22:07:52.545Z,88.50
2018-04-07T22:10:18.533Z,88.50
2018-04-07T22:12:44.520Z,90.00
2018-04-07T22:15:10.522Z,90.20
2018-04-07T22:17:36.518Z,90.50
2018-04-07T22:20:03.253Z,91.00
2018-04-07T22:22:29.221Z,91.00
2018-04-07T22:24:55.200Z,90.90
2018-04-07T22:27:21.182Z,90.60
2018-04-07T22:29:47.897Z,91.30
2018-04-07T22:32:20.857Z,91.30
2018-04-07T22:34:46.826Z,91.60
2018-04-07T22:37:12.834Z,91.90
2018-04-07T22:39:38.810Z,92.10
2018-04-07T22:42:04.798Z,92.30
2018-04-07T22:44:30.813Z,92.70
2018-04-07T22:46:57.545Z,93.00
2018-04-07T22:49:23.561Z,93.00
2018-04-07T22:51:49.524Z,93.30
2018-04-07T22:54:15.510Z,93.60
2018-04-07T22:56:41.476Z,93.70
2018-04-07T22:59:07.457Z,94.10
2018-04-07T23:01:34.150Z,94.40
2018-04-07T23:04:00.145Z,94.40
2018-04-07T23:06:26.137Z,94.30
2018-04-07T23:08:52.965Z,95.10
2018-04-07T23:11:18.977Z,95.30
2018-04-07T23:13:44.955Z,95.60
2018-04-07T23:16:10.953Z,96.10
2018-04-07T23:18:36.921Z,96.40
2018-04-07T23:21:02.901Z,97.30
2018-04-07T23:23:29.606Z,97.40
2018-04-07T23:25:55.594Z,97.40
2018-04-07T23:28:22.333Z,97.70
2018-04-07T23:30:48.285Z,97.60
2018-04-07T23:33:15.034Z,97.90
2018-04-07T23:35:41.737Z,98.00
2018-04-07T23:38:07.757Z,97.90
2018-04-07T23:40:33.733Z,98.10
2018-04-07T23:42:59.697Z,98.00
2018-04-07T23:45:26.472Z,98.50
2018-04-07T23:47:52.451Z,98.50
2018-04-07T23:50:18.457Z,98.90
2018-04-07T23:52:44.401Z,99.10
2018-04-07T23:55:10.397Z,99.40
2018-04-07T23:57:37.136Z,99.20
